Tiempo atmosférico en la estación meteorológica de Montehermoso, Cáceres (351 m.)



Fecha
DESCASC
Temp. máxima en grados centígrados (hora)
DESCASC
Temp. mínima en grados centígrados (hora)
DESCASC
Temp. media en grados centígrados
DESCASC
Racha de viento máxima en m/sg (hora)
DESCASC
Velocidad máxima media en intervalos de 10 minutos(hora)
DESCASC
Precipitaciones diarias en mm
DESCASC
Precipitaciones de 00:00 a 06:00 en mm
DESCASC
Precipitaciones de 06:00 a 12:00 en mm
DESCASC
Precipitaciones de 12:00 a 18:00 en mm
DESCASC
Precipitaciones de 18:00 a 24:00 en mm
DESCASC
06-07-2020 39 (17:30) 19.4 (07:20) 29.2 7.5 (18:00) 4.44 (19:00) 0 0 0 0 0
05-07-2020 38.3 (16:50) 20.9 (07:40) 29.6 6.67 (17:40) 4.44 (16:20) 0 0 0 0 0
04-07-2020 36.6 (19:40) 16.5 (07:30) 26.5 7.78 (02:30) 4.17 (17:10) 0 0 0 0 0
03-07-2020 32.9 (19:00) 15.3 (07:30) 24.1 7.5 (00:10) 4.44 (00:10) 0 0 0 0 0
02-07-2020 31.4 (18:30) 15.8 (00:00) 23.6 9.44 (13:40) 5 (16:10) 0 0 0 0 0
01-07-2020 34.8 (18:20) 16.4 (00:00) 25.6 9.44 (20:20) 5.56 (20:50) 0 0 0 0 0
30-06-2020 37 (17:20) 18.9 (00:00) 27.9 10 (19:20) 6.11 (19:20) 0 0 0 0 0
29-06-2020 36.4 (17:50) 18.4 (00:00) 27.4 7.5 (15:00) 4.17 (15:10) 0 0 0 0 0
28-06-2020 34.3 (17:30) 17 (00:00) 25.6 9.72 (16:10) 5.56 (23:40) 0 0 0 0 0
27-06-2020 31.5 (17:20) 15.1 (00:00) 23.3 10.28 (16:00) 4.72 (19:00) 0 0 0 0 0
26-06-2020 29.9 (19:20) 13.5 (00:00) 21.7 8.06 (18:10) 4.72 (16:10) 0 0 0 0 0
25-06-2020 33.5 (17:20) 19.5 (00:00) 26.5 10.83 (16:50) 4.44 (16:30) 0 0 0 0 0
24-06-2020 35.1 (18:30) 20.9 (00:00) 28 8.89 (16:30) 4.44 (17:20) 0 0 0 0 0
23-06-2020 39.6 (17:40) 20.6 (00:00) 30.1 9.44 (11:30) 5.56 (11:40) 0 0 0 0 0
22-06-2020 38.3 (19:10) 20.9 (00:00) 29.6 9.44 (13:50) 5.56 (13:50) 0 0 0 0 0
21-06-2020 34.1 (16:50) 14.6 (00:00) 24.3 8.33 (18:20) 5 (20:30) 0 0 0 0 0
20-06-2020 32.5 (18:40) 14.3 (00:00) 23.4 8.33 (16:40) 4.44 (14:50) 0 0 0 0 0
19-06-2020 30.9 (19:00) 12.8 (00:00) 21.8 8.33 (15:00) 4.17 (16:30) 0 0 0 0 0
18-06-2020 29.2 (18:40) 12.9 (00:00) 21.1 11.11 (14:00) 4.72 (23:00) 0 0 0 0 0
17-06-2020 27.1 (19:00) 10.2 (00:00) 18.7 7.78 (00:20) 5.28 (00:20) 0 0 0 0 0
16-06-2020 25.3 (15:00) 13.9 (00:00) 19.6 9.17 (19:00) 5.28 (19:00) 0 0 0 0 0
15-06-2020 26.4 (17:30) 10.9 (00:00) 18.6 8.89 (20:30) 5.83 (20:30) 0 0 0 0 0
14-06-2020 26.2 (18:20) 10.5 (00:00) 18.4 10.28 (13:40) 4.44 (23:00) 0 0 0 0 0
13-06-2020 22.9 (18:20) 9.7 (00:00) 16.3 8.06 (16:30) 4.17 (20:00) 0 0 0 0 0
12-06-2020 21.7 (17:30) 8.1 (00:00) 14.9 12.5 (18:00) 7.78 (18:00) 0.2 0 0 0.2 0
11-06-2020 24.4 (15:50) 10.5 (00:00) 17.4 15.83 (17:00) 8.61 (17:20) 0 0 0 0 0
10-06-2020 28.8 (18:20) 11.9 (00:00) 20.3 9.17 (19:00) 5 (10:50) 0 0 0 0 0
09-06-2020 27.4 (18:20) 11.8 (00:00) 19.6 10.56 (15:30) 4.17 (15:30) 0 0 0 0 0
08-06-2020 25.5 (16:40) 12.5 (06:50) 19 9.17 (09:00) 4.17 (08:10) 0 0 0 0 0
07-06-2020 24.3 (19:00) 12.1 (00:00) 18.2 8.61 (21:10) 4.44 (20:10) 0 0 0 0 0

Gráficas

Temp. máximas Temp. mínimas Temp. medias Precipitaciones Rachas de viento máximas Velocidades máximas media en intervalos de 10 minutos

Datos horarios

Fecha y hora oficial Temperatura (ºC) Velocidad del viento (km/h) Dirección del viento Racha (km/h) Dirección de racha Precipitación (mm) Presión (hPa) Tendencia (hPa) Humedad (%)
2020-07-06 23:00:00 30.9 5 Noroeste 11 Noroeste 0 -- -- 35
2020-07-06 22:00:00 33.1 5 Noroeste 10 Oeste 0 -- -- 32
2020-07-06 21:00:00 37.9 8 Oeste 15 Oeste 0 -- -- 23
2020-07-06 20:00:00 38.9 5 Sur 22 Sur 0 -- -- 24
2020-07-06 19:00:00 38.9 16 Sudeste 25 Sur 0 -- -- 23
2020-07-06 18:00:00 38.8 15 Sur 27 Sur 0 -- -- 21
2020-07-06 17:00:00 38.6 14 Sur 26 Sudeste 0 -- -- 23
2020-07-06 16:00:00 38.4 15 Sur 24 Sudeste 0 -- -- 23
2020-07-06 15:00:00 38.5 12 Sur 23 Sur 0 -- -- 24
2020-07-06 14:00:00 36.9 13 Sur 23 Sudeste 0 -- -- 25
2020-07-06 13:00:00 35.5 6 Sudeste 16 Sudeste 0 -- -- 27
2020-07-06 12:00:00 34.4 8 Sudeste 18 Sudeste 0 -- -- 27
2020-07-06 11:00:00 32.3 10 Sudeste 22 Este 0 -- -- 31
2020-07-06 10:00:00 29 5 Nordeste 11 Nordeste 0 -- -- 39
2020-07-06 09:00:00 24 4 Sudeste 10 Sudeste 0 -- -- 46
2020-07-06 08:00:00 20.6 4 Noroeste 8 Oeste 0 -- -- 54
2020-07-06 07:00:00 20.1 5 Noroeste 7 Oeste 0 -- -- 52
2020-07-06 06:00:00 20 3 Noroeste 6 Oeste 0 -- -- 51
2020-07-06 05:00:00 20.7 3 Norte 6 Sur 0 -- -- 49
2020-07-06 04:00:00 22.8 0 Calma 8 Noroeste 0 -- -- 41
2020-07-06 03:00:00 24.9 4 Noroeste 13 Oeste 0 -- -- 37
2020-07-06 02:00:00 27 4 Sudeste 9 Norte 0 -- -- 33
2020-07-06 01:00:00 29 6 Norte 15 Norte 0 -- -- 29
2020-07-06 00:00:00 29.6 9 Norte 17 Norte 0 -- -- 28
2020-07-05 23:00:00 28.4 7 Noroeste 11 Noroeste 0 -- -- 32
2020-07-05 22:00:00 30.6 4 Norte 5 Norte 0 -- -- 34
2020-07-05 21:00:00 37.3 3 Sur 9 Sur 0 -- -- 24
2020-07-05 20:00:00 37.9 5 Sur 18 Sur 0 -- -- 19
2020-07-05 19:00:00 38 8 Sudoeste 18 Sur 0 -- -- 17
2020-07-05 18:00:00 38 12 Sudoeste 24 Sudoeste 0 -- -- 19
2020-07-05 17:00:00 38 12 Sur 23 Sudeste 0 -- -- 19
2020-07-05 16:00:00 37.9 14 Sudeste 21 Sudeste 0 -- -- 19
2020-07-05 15:00:00 36.8 12 Sudeste 18 Sudeste 0 -- -- 21
2020-07-05 14:00:00 35 10 Sudeste 18 Sur 0 -- -- 25
2020-07-05 13:00:00 33 10 Sur 20 Sur 0 -- -- 28
2020-07-05 12:00:00 31.8 8 Sudeste 18 Sudeste 0 -- -- 28
2020-07-05 11:00:00 29.9 8 Sudeste 19 Sudeste 0 -- -- 28
2020-07-05 10:00:00 28.5 10 Este 21 Sudeste 0 -- -- 27
2020-07-05 09:00:00 24.9 4 Este 10 Este 0 -- -- 33
2020-07-05 08:00:00 21.8 5 Nordeste 9 Nordeste 0 -- -- 35
2020-07-05 07:00:00 21.9 6 Nordeste 12 Nordeste 0 -- -- 33
2020-07-05 06:00:00 23.8 7 Nordeste 17 Nordeste 0 -- -- 29
2020-07-05 05:00:00 23.3 5 Nordeste 9 Este 0 -- -- 32
2020-07-05 04:00:00 25.3 7 Nordeste 16 Norte 0 -- -- 28
2020-07-05 03:00:00 27.3 9 Norte 23 Norte 0 -- -- 25
2020-07-05 02:00:00 27.9 11 Norte 21 Norte 0 -- -- 24
2020-07-05 01:00:00 28.2 12 Norte 21 Norte 0 -- -- 25
2020-07-05 00:00:00 28 8 Norte 14 Norte 0 -- -- 27
2020-07-04 23:00:00 28.3 6 Norte 12 Norte 0 -- -- 28
2020-07-04 22:00:00 31 8 Noroeste 12 Noroeste 0 -- -- 25
2020-07-04 21:00:00 35.2 6 Noroeste 12 Sudoeste 0 -- -- 20
2020-07-04 20:00:00 36 7 Oeste 15 Sur 0 -- -- 19
2020-07-04 19:00:00 36.2 9 Sur 19 Sur 0 -- -- 20
2020-07-04 18:00:00 36.1 11 Sudeste 22 Sudeste 0 -- -- 21
2020-07-04 17:00:00 35.9 13 Sudeste 24 Sur 0 -- -- 20
2020-07-04 16:00:00 35.2 12 Sur 21 Sudeste 0 -- -- 21
2020-07-04 15:00:00 34.3 9 Sudeste 21 Sur 0 -- -- 19
2020-07-04 14:00:00 32.7 12 Sur 19 Sudeste 0 -- -- 26
2020-07-04 13:00:00 31.5 9 Sudeste 18 Sur 0 -- -- 27
2020-07-04 12:00:00 30.5 8 Sudeste 22 Sudeste 0 -- -- 28
2020-07-04 11:00:00 29.2 12 Sudeste 19 Sudeste 0 -- -- 30
2020-07-04 10:00:00 27.3 4 Este 13 Sudeste 0 -- -- 31
2020-07-04 09:00:00 23 3 Este 15 Sudeste 0 -- -- 43
2020-07-04 08:00:00 17.7 4 Sudoeste 9 Sudeste 0 -- -- 50
2020-07-04 07:00:00 16.8 3 Noroeste 13 Sudeste 0 -- -- 53
2020-07-04 06:00:00 19.9 9 Sudeste 14 Sudeste 0 -- -- 43
2020-07-04 05:00:00 21.3 0 Calma 14 Norte 0 -- -- 38
2020-07-04 04:00:00 24.2 3 Norte 26 Norte 0 -- -- 32
2020-07-04 03:00:00 25.4 13 Norte 28 Norte 0 -- -- 30
2020-07-04 02:00:00 25.5 10 Norte 23 Norte 0 -- -- 29
2020-07-04 01:00:00 25.6 9 Norte 16 Norte 0 -- -- 30
2020-07-04 00:00:00 26.3 9 Norte 16 Norte 0 -- -- 30
2020-07-03 23:00:00 27.4 11 Norte 19 Noroeste 0 -- -- 28
2020-07-03 22:00:00 28.3 8 Oeste 14 Sudoeste 0 -- -- 32
2020-07-03 21:00:00 32.1 8 Oeste 15 Sudoeste 0 -- -- 26
2020-07-03 20:00:00 32 11 Sur 22 Sur 0 -- -- 27
2020-07-03 19:00:00 32.9 10 Sur 22 Sur 0 -- -- 27
2020-07-03 18:00:00 32.6 10 Sudoeste 24 Oeste 0 -- -- 27
2020-07-03 17:00:00 32.5 10 Sur 21 Sudeste 0 -- -- 26
2020-07-03 16:00:00 31.5 10 Sur 19 Sudeste 0 -- -- 28
2020-07-03 15:00:00 30.6 6 Sur 18 Sur 0 -- -- 29
2020-07-03 14:00:00 29.1 8 Sudeste 19 Sur 0 -- -- 34
2020-07-03 13:00:00 27.5 10 Sur 18 Sudeste 0 -- -- 35
2020-07-03 12:00:00 25.6 11 Sudeste 19 Norte 0 -- -- 40
2020-07-03 11:00:00 23.7 8 Nordeste 19 Este 0 -- -- 44
2020-07-03 10:00:00 21.7 8 Nordeste 17 Nordeste 0 -- -- 49
2020-07-03 09:00:00 19.3 7 Nordeste 14 Nordeste 0 -- -- 57
2020-07-03 08:00:00 16.1 0 Calma 9 Nordeste 0 -- -- 61
2020-07-03 07:00:00 16.2 4 Sudeste 9 Noroeste 0 -- -- 58
2020-07-03 06:00:00 16.5 2 Oeste 13 Noroeste 0 -- -- 57
2020-07-03 05:00:00 17.8 4 Norte 14 Norte 0 -- -- 53
2020-07-03 04:00:00 19.2 11 Norte 19 Norte 0 -- -- 50
2020-07-03 03:00:00 19.2 3 Oeste 11 Norte 0 -- -- 50
2020-07-03 02:00:00 20.3 8 Noroeste 19 Norte 0 -- -- 49
2020-07-03 01:00:00 21.4 13 Norte 27 Noroeste 0 -- -- 46
2020-07-03 00:00:00 22.8 14 Norte 29 Norte 0 -- -- 39
2020-07-02 23:00:00 24.1 15 Norte 28 Noroeste 0 -- -- 38
2020-07-02 22:00:00 25.7 12 Norte 24 Noroeste 0 -- -- 32
2020-07-02 21:00:00 28.5 13 Noroeste 28 Noroeste 0 -- -- 31
2020-07-02 20:00:00 30.3 13 Noroeste 27 Oeste 0 -- -- 29
2020-07-02 19:00:00 31.1 17 Oeste 31 Oeste 0 -- -- 29
2020-07-02 18:00:00 31.1 17 Oeste 33 Oeste 0 -- -- 28
2020-07-02 17:00:00 30.9 15 Oeste 33 Oeste 0 -- -- 30
2020-07-02 16:00:00 30.4 14 Sudoeste 30 Sudoeste 0 -- -- 34
2020-07-02 15:00:00 30 11 Oeste 28 Noroeste 0 -- -- 33
2020-07-02 14:00:00 28.8 12 Oeste 34 Oeste 0 -- -- 38
2020-07-02 13:00:00 27.8 8 Oeste 24 Noroeste 0 -- -- 41
2020-07-02 12:00:00 27 12 Sudeste 21 Sudeste 0 -- -- 48
2020-07-02 11:00:00 25.2 8 Sur 15 Sudoeste 0 -- -- 53
2020-07-02 10:00:00 23.4 5 Sudeste 10 Sur 0 -- -- 58
2020-07-02 09:00:00 20.6 3 Oeste 6 Sur 0 -- -- 65
2020-07-02 08:00:00 16.8 0 Calma 4 Sudeste 0 -- -- 79
2020-07-02 07:00:00 16.4 3 Oeste 5 Oeste 0 -- -- 76
2020-07-02 06:00:00 17.3 3 Noroeste 6 Oeste 0 -- -- 73
2020-07-02 05:00:00 18.2 3 Noroeste 8 Oeste 0 -- -- 69
2020-07-02 04:00:00 18.8 4 Noroeste 7 Norte 0 -- -- 67
2020-07-02 03:00:00 21 0 Calma 8 Norte 0 -- -- 60
2020-07-02 02:00:00 22.3 0 Calma 13 Norte 0 -- -- 55
2020-07-02 01:00:00 24.8 12 Norte 19 Norte 0 -- -- 48
2020-07-02 00:00:00 25.4 9 Norte 22 Noroeste 0 -- -- 49
2020-07-01 23:00:00 27.1 11 Noroeste 19 Noroeste 0 -- -- 46
2020-07-01 22:00:00 29.3 9 Noroeste 30 Oeste 0 -- -- 40
2020-07-01 21:00:00 32.1 16 Oeste 34 Oeste 0 -- -- 31
2020-07-01 20:00:00 33.7 17 Oeste 27 Oeste 0 -- -- 30
2020-07-01 19:00:00 34.5 13 Sudoeste 28 Oeste 0 -- -- 30
2020-07-01 18:00:00 34.7 16 Oeste 31 Sur 0 -- -- 26
2020-07-01 17:00:00 34.4 7 Sudoeste 33 Oeste 0 -- -- 29
2020-07-01 16:00:00 33.7 11 Oeste 26 Oeste 0 -- -- 32
2020-07-01 15:00:00 32.4 13 Sudoeste 30 Sudoeste 0 -- -- 35
2020-07-01 14:00:00 31.1 18 Sur 28 Sur 0 -- -- 45
2020-07-01 13:00:00 29.5 14 Sur 28 Sur 0 -- -- 48
2020-07-01 12:00:00 27.2 12 Sudeste 18 Sur 0 -- -- 55
2020-07-01 11:00:00 25 8 Sudeste 12 Sudeste 0 -- -- 59
2020-07-01 10:00:00 22.6 5 Sudeste 9 Sudeste 0 -- -- 66
2020-07-01 09:00:00 20.4 6 Sudeste 10 Nordeste 0 -- -- 71
2020-07-01 08:00:00 18.1 4 Nordeste 9 Nordeste 0 -- -- 76
2020-07-01 07:00:00 16.5 2 Norte 5 Norte 0 -- -- 79
2020-07-01 06:00:00 17.3 3 Sudeste 8 Sudeste 0 -- -- 74
2020-07-01 05:00:00 18.1 4 Noroeste 6 Norte 0 -- -- 70
2020-07-01 04:00:00 19.1 0 Calma 8 Este 0 -- -- 67
2020-07-01 03:00:00 19.8 3 Sudeste 6 Oeste 0 -- -- 64
2020-07-01 02:00:00 21.1 3 Noroeste 8 Norte 0 -- -- 60
2020-07-01 01:00:00 23.8 2 Sudeste 16 Noroeste 0 -- -- 53
2020-07-01 00:00:00 26.6 10 Noroeste 23 Oeste 0 -- -- 45
2020-06-30 23:00:00 28.4 15 Oeste 28 Oeste 0 -- -- 38
2020-06-30 22:00:00 30 13 Oeste 25 Oeste 0 -- -- 32
2020-06-30 21:00:00 33.2 16 Oeste 36 Oeste 0 -- -- 27
2020-06-30 20:00:00 34.5 18 Oeste 36 Oeste 0 -- -- 28
2020-06-30 19:00:00 35.9 16 Oeste 28 Sudoeste 0 -- -- 27
2020-06-30 18:00:00 36.2 13 Oeste 26 Oeste 0 -- -- 27
2020-06-30 17:00:00 36.7 13 Sudoeste 30 Sur 0 -- -- 25
2020-06-30 16:00:00 36.3 14 Sudoeste 30 Oeste 0 -- -- 25
2020-06-30 15:00:00 35.4 11 Sudoeste 27 Oeste 0 -- -- 29
2020-06-30 14:00:00 34.4 11 Sudoeste 25 Oeste 0 -- -- 29
2020-06-30 13:00:00 33.1 9 Sur 19 Sur 0 -- -- 36
2020-06-30 12:00:00 31.4 6 Sudeste 13 Sudeste 0 -- -- 39
2020-06-30 11:00:00 29.3 5 Sudeste 12 Sudeste 0 -- -- 42
2020-06-30 10:00:00 27.1 5 Sudeste 10 Sudeste 0 -- -- 46
2020-06-30 09:00:00 24.4 6 Este 13 Nordeste 0 -- -- 53
2020-06-30 08:00:00 20 3 Noroeste 5 Noroeste 0 -- -- 65
2020-06-30 07:00:00 19 3 Norte 6 Noroeste 0 -- -- 66
2020-06-30 06:00:00 19.7 4 Noroeste 7 Oeste 0 -- -- 63
2020-06-30 05:00:00 20.6 4 Noroeste 6 Oeste 0 -- -- 59
2020-06-30 04:00:00 22.2 2 Oeste 9 Oeste 0 -- -- 53
2020-06-30 03:00:00 23.2 6 Noroeste 10 Noroeste 0 -- -- 50
2020-06-30 02:00:00 23 3 Noroeste 5 Oeste 0 -- -- 53
2020-06-30 01:00:00 25.6 2 Sudeste 9 Sudeste 0 -- -- 45
2020-06-30 00:00:00 27.1 3 Norte 12 Noroeste 0 -- -- 41
2020-06-29 23:00:00 27.8 5 Noroeste 8 Noroeste 0 -- -- 40
2020-06-29 22:00:00 30.8 6 Noroeste 11 Norte 0 -- -- 36
2020-06-29 21:00:00 35.2 7 Norte 14 Noroeste 0 -- -- 28
2020-06-29 20:00:00 36.3 4 Sudoeste 21 Sur 0 -- -- 27
2020-06-29 19:00:00 36.2 12 Sur 21 Sudeste 0 -- -- 29
2020-06-29 18:00:00 36.2 13 Sur 24 Sudeste 0 -- -- 29
2020-06-29 17:00:00 35.7 14 Sur 26 Sur 0 -- -- 30
2020-06-29 16:00:00 34.8 13 Sur 24 Sur 0 -- -- 31
2020-06-29 15:00:00 34.1 14 Sudeste 27 Sur 0 -- -- 28
2020-06-29 14:00:00 32.6 8 Sur 20 Sudeste 0 -- -- 40
2020-06-29 13:00:00 31 9 Sudeste 17 Sudeste 0 -- -- 44
2020-06-29 12:00:00 29.4 12 Sur 21 Sur 0 -- -- 47
2020-06-29 11:00:00 29 4 Sudeste 14 Nordeste 0 -- -- 46
2020-06-29 10:00:00 26.5 9 Nordeste 22 Norte 0 -- -- 51
2020-06-29 09:00:00 24.4 8 Nordeste 20 Norte 0 -- -- 56
2020-06-29 08:00:00 22.2 10 Norte 21 Norte 0 -- -- 62
2020-06-29 07:00:00 18.5 5 Noroeste 8 Noroeste 0 -- -- 74
2020-06-29 06:00:00 19.5 3 Noroeste 7 Oeste 0 -- -- 70
2020-06-29 05:00:00 21.6 7 Oeste 12 Oeste 0 -- -- 63
2020-06-29 04:00:00 22.3 6 Oeste 10 Noroeste 0 -- -- 61
2020-06-29 03:00:00 23.3 4 Noroeste 10 Noroeste 0 -- -- 59
2020-06-29 02:00:00 24.4 7 Noroeste 14 Noroeste 0 -- -- 56
2020-06-29 01:00:00 25.2 6 Noroeste 22 Norte 0 -- -- 54
2020-06-29 00:00:00 26.9 17 Norte 31 Norte 0 -- -- 49
2020-06-28 23:00:00 28 15 Norte 22 Noroeste 0 -- -- 45
2020-06-28 22:00:00 29.6 12 Noroeste 25 Norte 0 -- -- 41
2020-06-28 21:00:00 32.1 13 Noroeste 26 Oeste 0 -- -- 35
2020-06-28 20:00:00 33.4 13 Noroeste 26 Oeste 0 -- -- 32
2020-06-28 19:00:00 34.1 14 Oeste 23 Noroeste 0 -- -- 31
2020-06-28 18:00:00 34.1 13 Noroeste 23 Oeste 0 -- -- 32
2020-06-28 17:00:00 33.5 10 Noroeste 35 Sudeste 0 -- -- 34
2020-06-28 16:00:00 33.9 12 Este 30 Sur 0 -- -- 38
2020-06-28 15:00:00 32.2 9 Sudoeste 20 Sudeste 0 -- -- 39
2020-06-28 14:00:00 31.8 6 Sudoeste 18 Sudeste 0 -- -- 40
2020-06-28 13:00:00 30.1 8 Sur 17 Noroeste 0 -- -- 43
2020-06-28 12:00:00 29 4 Sur 15 Norte 0 -- -- 44
2020-06-28 11:00:00 26.8 9 Norte 18 Nordeste 0 -- -- 49
2020-06-28 10:00:00 24.7 5 Nordeste 13 Norte 0 -- -- 56
2020-06-28 09:00:00 21.5 3 Sudeste 6 Sudeste 0 -- -- 66
2020-06-28 08:00:00 18.5 3 Noroeste 6 Oeste 0 -- -- 76
2020-06-28 07:00:00 17.2 3 Norte 5 Noroeste 0 -- -- 79
2020-06-28 06:00:00 18.5 3 Oeste 5 Oeste 0 -- -- 74
2020-06-28 05:00:00 19.7 3 Sudeste 10 Norte 0 -- -- 69
2020-06-28 04:00:00 20.8 4 Norte 12 Norte 0 -- -- 66
2020-06-28 03:00:00 21.7 5 Norte 13 Norte 0 -- -- 63
2020-06-28 02:00:00 22.6 8 Norte 17 Norte 0 -- -- 60
2020-06-28 01:00:00 23.2 8 Norte 17 Norte 0 -- -- 58
2020-06-28 00:00:00 24.3 12 Noroeste 21 Noroeste 0 -- -- 53
2020-06-27 23:00:00 25.2 13 Noroeste 25 Noroeste 0 -- -- 50
2020-06-27 22:00:00 26.5 15 Norte 25 Norte 0 -- -- 48
2020-06-27 21:00:00 29 14 Norte 27 Noroeste 0 -- -- 43
2020-06-27 20:00:00 30.2 13 Noroeste 26 Norte 0 -- -- 40
2020-06-27 19:00:00 30.8 17 Noroeste 28 Noroeste 0 -- -- 38
2020-06-27 18:00:00 31.5 13 Noroeste 28 Sudoeste 0 -- -- 37
2020-06-27 17:00:00 31.2 12 Oeste 28 Oeste 0 -- -- 36
2020-06-27 16:00:00 30.2 13 Noroeste 37 Oeste 0 -- -- 38
2020-06-27 15:00:00 29.2 11 Noroeste 24 Noroeste 0 -- -- 40
2020-06-27 14:00:00 28.1 9 Oeste 21 Oeste 0 -- -- 42
2020-06-27 13:00:00 26.6 9 Oeste 21 Oeste 0 -- -- 45
2020-06-27 12:00:00 25.8 5 Sudeste 17 Sudoeste 0 -- -- 51
2020-06-27 11:00:00 23.7 6 Noroeste 15 Oeste 0 -- -- 55
2020-06-27 10:00:00 21.5 8 Sudoeste 13 Sudoeste 0 -- -- 61
2020-06-27 09:00:00 19 3 Sudeste 5 Sudeste 0 -- -- 70
2020-06-27 08:00:00 16 0 Calma 5 Oeste 0 -- -- 82
2020-06-27 07:00:00 15.7 0 Calma 9 Sudeste 0 -- -- 81
2020-06-27 06:00:00 16.1 4 Oeste 5 Oeste 0 -- -- 79
2020-06-27 05:00:00 16.5 2 Noroeste 5 Oeste 0 -- -- 77
2020-06-27 04:00:00 18 0 Calma 5 Sudeste 0 -- -- 71
2020-06-27 03:00:00 19.3 0 Calma 9 Noroeste 0 -- -- 66
2020-06-27 02:00:00 19.3 3 Noroeste 5 Nordeste 0 -- -- 66
2020-06-27 01:00:00 21 0 Calma 14 Oeste 0 -- -- 60
2020-06-27 00:00:00 22.8 11 Noroeste 20 Noroeste 0 -- -- 54
2020-06-26 23:00:00 24.3 10 Noroeste 19 Noroeste 0 -- -- 49
2020-06-26 22:00:00 25.8 7 Oeste 18 Oeste 0 -- -- 40
2020-06-26 21:00:00 28.3 11 Oeste 22 Oeste 0 -- -- 34
2020-06-26 20:00:00 29.5 12 Oeste 21 Oeste 0 -- -- 32
2020-06-26 19:00:00 29.4 14 Sudoeste 29 Sur 0 -- -- 33
2020-06-26 18:00:00 29.6 8 Oeste 25 Sur 0 -- -- 31
2020-06-26 17:00:00 29.2 14 Sur 28 Sur 0 -- -- 31
2020-06-26 16:00:00 28.2 14 Sur 27 Sur 0 -- -- 36
2020-06-26 15:00:00 27.1 12 Sudoeste 27 Sur 0 -- -- 41
2020-06-26 14:00:00 25.4 11 Sur 23 Sudoeste 0 -- -- 50
2020-06-26 13:00:00 24.1 12 Sur 20 Sur 0 -- -- 55
2020-06-26 12:00:00 22.2 7 Sudeste 14 Sudeste 0 -- -- 59
2020-06-26 11:00:00 19.7 8 Sudeste 13 Sudeste 0 -- -- 67
2020-06-26 10:00:00 17.6 4 Sur 9 Sudeste 0 -- -- 72
2020-06-26 09:00:00 15.9 4 Sur 10 Sur 0 -- -- 78
2020-06-26 08:00:00 14.4 4 Sudoeste 11 Oeste 0 -- -- 84
2020-06-26 07:00:00 14 3 Oeste 8 Este 0 -- -- 86
2020-06-26 06:00:00 15.3 3 Sur 10 Oeste 0 -- -- 79
2020-06-26 05:00:00 16.7 7 Oeste 11 Oeste 0 -- -- 75
2020-06-26 04:00:00 18 6 Oeste 10 Oeste 0 -- -- 70
2020-06-26 03:00:00 19.2 7 Oeste 13 Oeste 0 -- -- 68
2020-06-26 02:00:00 20.2 7 Noroeste 12 Oeste 0 -- -- 61
2020-06-26 01:00:00 22.4 8 Oeste 18 Oeste 0 -- -- 53
2020-06-26 00:00:00 24 12 Oeste 18 Oeste 0 -- -- 50
2020-06-25 23:00:00 26.2 9 Oeste 13 Oeste 0 -- -- 47
2020-06-25 22:00:00 28.9 7 Oeste 16 Sudoeste 0 -- -- 41
2020-06-25 21:00:00 31.4 8 Oeste 20 Oeste 0 -- -- 37
2020-06-25 20:00:00 32.2 8 Oeste 25 Sudoeste 0 -- -- 33
2020-06-25 19:00:00 32.8 13 Sudoeste 26 Sur 0 -- -- 32
2020-06-25 18:00:00 33 14 Sur 27 Sur 0 -- -- 29
2020-06-25 17:00:00 33.4 13 Sur 39 Sudoeste 0 -- -- 32
2020-06-25 16:00:00 32.8 10 Sur 25 Sur 0 -- -- 32
2020-06-25 15:00:00 32 8 Oeste 23 Sudeste 0 -- -- 30
2020-06-25 14:00:00 30.4 11 Sudoeste 27 Sur 0 -- -- 37
2020-06-25 13:00:00 29.2 9 Sudoeste 25 Sur 0 -- -- 41
2020-06-25 12:00:00 27.7 12 Sudeste 20 Sudeste 0 -- -- 49
2020-06-25 11:00:00 25.7 7 Sudeste 11 Sudeste 0 -- -- 55
2020-06-25 10:00:00 23.9 7 Sudeste 12 Sudeste 0 -- -- 61
2020-06-25 09:00:00 22 5 Sudoeste 12 Sudoeste 0 -- -- 66
2020-06-25 08:00:00 20.4 2 Sur 4 Sur 0 -- -- 68
2020-06-25 07:00:00 19.9 2 Sudeste 4 Sudeste 0 -- -- 68
2020-06-25 06:00:00 20 0 Calma 4 Oeste 0 -- -- 68
2020-06-25 05:00:00 20.4 2 Nordeste 5 Norte 0 -- -- 65
2020-06-25 04:00:00 21.3 0 Calma 8 Nordeste 0 -- -- 61
2020-06-25 03:00:00 22.1 3 Noroeste 8 Nordeste 0 -- -- 60
2020-06-25 02:00:00 23.9 0 Calma 10 Oeste 0 -- -- 55
2020-06-25 01:00:00 25.1 5 Noroeste 7 Noroeste 0 -- -- 48
2020-06-25 00:00:00 26.7 5 Noroeste 12 Noroeste 0 -- -- 40
2020-06-24 23:00:00 28.6 8 Noroeste 16 Oeste 0 -- -- 35
2020-06-24 22:00:00 29.6 11 Oeste 24 Noroeste 0 -- -- 34
2020-06-24 21:00:00 32.5 13 Oeste 22 Oeste 0 -- -- 31
2020-06-24 20:00:00 34.3 10 Oeste 24 Oeste 0 -- -- 30
2020-06-24 19:00:00 34.6 13 Oeste 27 Oeste 0 -- -- 30
2020-06-24 18:00:00 34.8 16 Oeste 31 Oeste 0 -- -- 30
2020-06-24 17:00:00 34.7 15 Sudoeste 32 Sur 0 -- -- 31
2020-06-24 16:00:00 34.3 15 Sudoeste 25 Sudoeste 0 -- -- 35
2020-06-24 15:00:00 33.5 10 Sudoeste 22 Sur 0 -- -- 37
2020-06-24 14:00:00 32.7 7 Sudoeste 18 Sur 0 -- -- 40
2020-06-24 13:00:00 31.2 9 Sudoeste 21 Sudeste 0 -- -- 42
2020-06-24 12:00:00 30.3 9 Sur 17 Sudeste 0 -- -- 44
2020-06-24 11:00:00 28.3 8 Sudeste 14 Sudeste 0 -- -- 49
2020-06-24 10:00:00 26.3 3 Sudeste 8 Sudeste 0 -- -- 54
2020-06-24 09:00:00 24 3 Noroeste 6 Oeste 0 -- -- 60
2020-06-24 08:00:00 21.4 0 Calma 6 Este 0 -- -- 64
2020-06-24 07:00:00 21.2 2 Norte 8 Este 0 -- -- 62
2020-06-24 06:00:00 21.9 7 Sudeste 9 Sudeste 0 -- -- 58
2020-06-24 05:00:00 22.1 0 Calma 7 Oeste 0 -- -- 58
2020-06-24 04:00:00 22.4 5 Oeste 10 Oeste 0 -- -- 55
2020-06-24 03:00:00 22.6 4 Noroeste 6 Noroeste 0 -- -- 53
2020-06-24 02:00:00 24.2 0 Calma 12 Noroeste 0 -- -- 48
2020-06-24 01:00:00 25.7 4 Sudeste 9 Sudeste 0 -- -- 45
2020-06-24 00:00:00 26 4 Noroeste 8 Norte 0 -- -- 44
2020-06-23 23:00:00 27.8 4 Norte 9 Oeste 0 -- -- 43
2020-06-23 22:00:00 31.7 3 Noroeste 8 Este 0 -- -- 35
2020-06-23 21:00:00 36.3 5 Este 14 Este 0 -- -- 28
2020-06-23 20:00:00 38.7 9 Este 17 Este 0 -- -- 23
2020-06-23 19:00:00 39.4 8 Este 18 Sudeste 0 -- -- 21
2020-06-23 18:00:00 38.9 8 Sur 19 Sudeste 0 -- -- 21
2020-06-23 17:00:00 39 6 Este 20 Sudeste 0 -- -- 23
2020-06-23 16:00:00 38.8 13 Este 21 Sudeste 0 -- -- 23
2020-06-23 15:00:00 36.6 12 Sudeste 27 Sudeste 0 -- -- 26
2020-06-23 14:00:00 35 14 Sudeste 30 Sudeste 0 -- -- 29
2020-06-23 13:00:00 33.6 15 Sudeste 28 Sudeste 0 -- -- 31
2020-06-23 12:00:00 32.4 14 Sudeste 34 Sudeste 0 -- -- 34
2020-06-23 11:00:00 30.1 13 Sudeste 33 Este 0 -- -- 38
2020-06-23 10:00:00 28 14 Sudeste 24 Sudeste 0 -- -- 40
2020-06-23 09:00:00 25.2 7 Sudeste 19 Sudeste 0 -- -- 44
2020-06-23 08:00:00 22 3 Este 13 Este 0 -- -- 49
2020-06-23 07:00:00 22.1 8 Este 14 Sudeste 0 -- -- 45
2020-06-23 06:00:00 22.5 7 Nordeste 14 Norte 0 -- -- 44
2020-06-23 05:00:00 20.8 4 Norte 12 Sudeste 0 -- -- 49
2020-06-23 04:00:00 21.6 0 Calma 10 Norte 0 -- -- 47
2020-06-23 03:00:00 22.4 0 Calma 10 Sudeste 0 -- -- 46
2020-06-23 02:00:00 25.7 6 Norte 11 Norte 0 -- -- 35
2020-06-23 01:00:00 27.4 5 Norte 11 Norte 0 -- -- 29
2020-06-23 00:00:00 27.9 7 Norte 12 Norte 0 -- -- 31
2020-06-22 23:00:00 28.4 5 Norte 9 Norte 0 -- -- 32
2020-06-22 22:00:00 30.7 5 Norte 8 Norte 0 -- -- 31
2020-06-22 21:00:00 35.4 4 Norte 17 Nordeste 0 -- -- 25
2020-06-22 20:00:00 37.1 6 Norte 13 Nordeste 0 -- -- 22
2020-06-22 19:00:00 38.2 4 Este 17 Este 0 -- -- 22
2020-06-22 18:00:00 38 5 Este 19 Sudeste 0 -- -- 22
2020-06-22 17:00:00 36.9 6 Sur 21 Sudeste 0 -- -- 23
2020-06-22 16:00:00 36.5 7 Sudeste 22 Sudeste 0 -- -- 24
2020-06-22 15:00:00 36.3 13 Sudeste 28 Sudeste 0 -- -- 26
2020-06-22 14:00:00 35.2 19 Sudeste 34 Sudeste 0 -- -- 27
2020-06-22 13:00:00 33.1 11 Este 23 Este 0 -- -- 31
2020-06-22 12:00:00 30.7 6 Este 20 Este 0 -- -- 35
2020-06-22 11:00:00 28.5 8 Nordeste 18 Este 0 -- -- 39
2020-06-22 10:00:00 26 6 Nordeste 18 Este 0 -- -- 46
2020-06-22 09:00:00 23.5 10 Nordeste 19 Este 0 -- -- 53
2020-06-22 08:00:00 21.1 6 Nordeste 13 Nordeste 0 -- -- 60
2020-06-22 07:00:00 22 6 Nordeste 22 Norte 0 -- -- 56
2020-06-22 06:00:00 22.4 10 Nordeste 19 Norte 0 -- -- 57
2020-06-22 05:00:00 23.5 12 Norte 25 Nordeste 0 -- -- 54
2020-06-22 04:00:00 23.6 13 Norte 23 Norte 0 -- -- 53
2020-06-22 03:00:00 24.3 13 Norte 30 Norte 0 -- -- 51
2020-06-22 02:00:00 23.7 7 Norte 15 Norte 0 -- -- 52
2020-06-22 01:00:00 24.3 4 Norte 12 Norte 0 -- -- 48
2020-06-22 00:00:00 26 7 Norte 21 Norte 0 -- -- 43
2020-06-21 23:00:00 27 12 Norte 19 Norte 0 -- -- 36
2020-06-21 22:00:00 28.4 12 Norte 19 Norte 0 -- -- 31
2020-06-21 21:00:00 31.6 13 Norte 27 Noroeste 0 -- -- 27
2020-06-21 20:00:00 32.8 16 Noroeste 27 Noroeste 0 -- -- 25
2020-06-21 19:00:00 33.5 15 Noroeste 30 Oeste 0 -- -- 26
2020-06-21 18:00:00 33.6 12 Noroeste 24 Oeste 0 -- -- 26
2020-06-21 17:00:00 33.9 17 Sudeste 29 Sur 0 -- -- 27
2020-06-21 16:00:00 33.4 10 Sur 29 Sudeste 0 -- -- 26
2020-06-21 15:00:00 32.5 7 Sur 22 Sur 0 -- -- 25
2020-06-21 14:00:00 30.7 12 Sudeste 20 Sudeste 0 -- -- 30
2020-06-21 13:00:00 29.7 6 Sur 13 Sur 0 -- -- 27
2020-06-21 12:00:00 27.5 8 Noroeste 17 Noroeste 0 -- -- 27
2020-06-21 11:00:00 25.9 7 Norte 20 Norte 0 -- -- 33
2020-06-21 10:00:00 24 10 Norte 17 Nordeste 0 -- -- 40
2020-06-21 09:00:00 20.6 4 Nordeste 13 Nordeste 0 -- -- 49
2020-06-21 08:00:00 16.7 4 Noroeste 8 Norte 0 -- -- 69
2020-06-21 07:00:00 14.8 4 Noroeste 6 Oeste 0 -- -- 78
2020-06-21 06:00:00 15.6 4 Noroeste 5 Oeste 0 -- -- 74
2020-06-21 05:00:00 15.9 2 Noroeste 7 Oeste 0 -- -- 74
2020-06-21 04:00:00 17.6 3 Noroeste 8 Oeste 0 -- -- 68
2020-06-21 03:00:00 17.9 4 Noroeste 8 Oeste 0 -- -- 69
2020-06-21 02:00:00 19.5 3 Noroeste 5 Oeste 0 -- -- 63
2020-06-21 01:00:00 22.1 2 Sur 18 Noroeste 0 -- -- 54
2020-06-21 00:00:00 24.5 13 Noroeste 21 Noroeste 0 -- -- 48
2020-06-20 23:00:00 25.5 11 Noroeste 22 Noroeste 0 -- -- 43
2020-06-20 22:00:00 27.8 11 Noroeste 18 Noroeste 0 -- -- 36
2020-06-20 21:00:00 31.2 6 Oeste 18 Oeste 0 -- -- 28
2020-06-20 20:00:00 32 10 Noroeste 21 Noroeste 0 -- -- 27
2020-06-20 19:00:00 32.3 10 Noroeste 28 Sur 0 -- -- 24
2020-06-20 18:00:00 32.4 9 Sudoeste 28 Sudoeste 0 -- -- 27
2020-06-20 17:00:00 31.7 12 Sudoeste 30 Sur 0 -- -- 27
2020-06-20 16:00:00 31.1 15 Sudoeste 27 Sudoeste 0 -- -- 30
2020-06-20 15:00:00 30.4 12 Sur 27 Sur 0 -- -- 31
2020-06-20 14:00:00 29 14 Sur 26 Sur 0 -- -- 36
2020-06-20 13:00:00 27.9 12 Sur 22 Sudeste 0 -- -- 43
2020-06-20 12:00:00 26.5 12 Sudeste 20 Sudeste 0 -- -- 47
2020-06-20 11:00:00 24.6 9 Sudeste 14 Sudeste 0 -- -- 47
2020-06-20 10:00:00 22.3 6 Sur 13 Sudeste 0 -- -- 49
2020-06-20 09:00:00 20 4 Sudeste 8 Sur 0 -- -- 58
2020-06-20 08:00:00 15.9 0 Calma 6 Oeste 0 -- -- 70
2020-06-20 07:00:00 14.3 5 Noroeste 7 Oeste 0 -- -- 73
2020-06-20 06:00:00 15.3 5 Oeste 8 Oeste 0 -- -- 68
2020-06-20 05:00:00 15.4 5 Oeste 8 Noroeste 0 -- -- 70
2020-06-20 04:00:00 16.1 4 Noroeste 8 Oeste 0 -- -- 68
2020-06-20 03:00:00 16.5 3 Noroeste 5 Oeste 0 -- -- 67
2020-06-20 02:00:00 17.8 2 Noroeste 5 Norte 0 -- -- 63
2020-06-20 01:00:00 20.8 3 Sur 21 Noroeste 0 -- -- 52
2020-06-20 00:00:00 23.2 14 Noroeste 20 Norte 0 -- -- 46
2020-06-19 23:00:00 23.8 9 Noroeste 15 Noroeste 0 -- -- 41
2020-06-19 22:00:00 26.1 9 Noroeste 21 Noroeste 0 -- -- 33
2020-06-19 21:00:00 29.3 7 Sur 13 Sudoeste 0 -- -- 27
2020-06-19 20:00:00 30.1 11 Sudoeste 26 Oeste 0 -- -- 24
2020-06-19 19:00:00 30.9 8 Oeste 22 Oeste 0 -- -- 24
2020-06-19 18:00:00 30.4 5 Oeste 23 Noroeste 0 -- -- 26
2020-06-19 17:00:00 29.7 14 Sur 28 Sur 0 -- -- 30
2020-06-19 16:00:00 29.2 12 Sur 25 Sudoeste 0 -- -- 33
2020-06-19 15:00:00 27.9 14 Sur 30 Sur 0 -- -- 33
2020-06-19 14:00:00 27.2 10 Sur 28 Sudoeste 0 -- -- 38
2020-06-19 13:00:00 25.9 11 Sudoeste 23 Sudoeste 0 -- -- 41
2020-06-19 12:00:00 24 9 Sur 18 Sudoeste 0 -- -- 48
2020-06-19 11:00:00 22.5 8 Sur 18 Sudeste 0 -- -- 52
2020-06-19 10:00:00 20.3 10 Sudeste 15 Sudeste 0 -- -- 56
2020-06-19 09:00:00 17.3 5 Sudeste 7 Sudeste 0 -- -- 68
2020-06-19 08:00:00 14.4 3 Oeste 5 Oeste 0 -- -- 75
2020-06-19 07:00:00 13 4 Noroeste 6 Oeste 0 -- -- 77
2020-06-19 06:00:00 13.6 3 Noroeste 8 Oeste 0 -- -- 74
2020-06-19 05:00:00 14.9 6 Oeste 7 Oeste 0 -- -- 69
2020-06-19 04:00:00 14.6 2 Noroeste 5 Noroeste 0 -- -- 70
2020-06-19 03:00:00 16.5 2 Noroeste 8 Norte 0 -- -- 63
2020-06-19 02:00:00 18.1 5 Norte 10 Oeste 0 -- -- 58
2020-06-19 01:00:00 20.2 2 Norte 11 Norte 0 -- -- 51
2020-06-19 00:00:00 21.4 7 Norte 24 Noroeste 0 -- -- 48
2020-06-18 23:00:00 23 17 Noroeste 28 Noroeste 0 -- -- 43
2020-06-18 22:00:00 24.5 13 Norte 26 Noroeste 0 -- -- 39
2020-06-18 21:00:00 27.3 14 Noroeste 22 Noroeste 0 -- -- 34
2020-06-18 20:00:00 28.7 10 Noroeste 22 Norte 0 -- -- 32
2020-06-18 19:00:00 28.6 9 Sudoeste 25 Oeste 0 -- -- 32
2020-06-18 18:00:00 28.8 9 Sudoeste 21 Oeste 0 -- -- 32
2020-06-18 17:00:00 28.4 10 Noroeste 25 Oeste 0 -- -- 33
2020-06-18 16:00:00 27.6 12 Oeste 23 Oeste 0 -- -- 34
2020-06-18 15:00:00 26.6 14 Oeste 30 Noroeste 0 -- -- 36
2020-06-18 14:00:00 26.3 14 Sudoeste 40 Sur 0 -- -- 38
2020-06-18 13:00:00 25.3 12 Sudeste 24 Sur 0 -- -- 44
2020-06-18 12:00:00 23.8 4 Sudoeste 15 Sur 0 -- -- 47
2020-06-18 11:00:00 22.7 4 Nordeste 18 Este 0 -- -- 46
2020-06-18 10:00:00 19.5 5 Sudeste 10 Sudeste 0 -- -- 61
2020-06-18 09:00:00 17.3 0 Calma 3 Nordeste 0 -- -- 63
2020-06-18 08:00:00 14 2 Oeste 6 Oeste 0 -- -- 73
2020-06-18 07:00:00 13 2 Noroeste 6 Oeste 0 -- -- 76
2020-06-18 06:00:00 14.3 4 Oeste 8 Noroeste 0 -- -- 70
2020-06-18 05:00:00 15.2 5 Noroeste 7 Noroeste 0 -- -- 67
2020-06-18 04:00:00 15.8 4 Norte 8 Norte 0 -- -- 65
2020-06-18 03:00:00 16.1 2 Noroeste 6 Noroeste 0 -- -- 67
2020-06-18 02:00:00 16.8 5 Norte 7 Oeste 0 -- -- 64
2020-06-18 01:00:00 18.7 3 Oeste 8 Noroeste 0 -- -- 58
2020-06-18 00:00:00 20.5 5 Noroeste 14 Sudoeste 0 -- -- 50
2020-06-17 23:00:00 21.6 7 Noroeste 14 Norte 0 -- -- 44
2020-06-17 22:00:00 22.4 7 Norte 15 Noroeste 0 -- -- 42
2020-06-17 21:00:00 24.4 8 Oeste 18 Oeste 0 -- -- 39
2020-06-17 20:00:00 26.4 10 Noroeste 20 Oeste 0 -- -- 34
2020-06-17 19:00:00 27.1 6 Oeste 22 Oeste 0 -- -- 32
2020-06-17 18:00:00 26.7 4 Oeste 27 Sur 0 -- -- 32
2020-06-17 17:00:00 25.9 14 Oeste 26 Sur 0 -- -- 31
2020-06-17 16:00:00 25.2 8 Oeste 28 Oeste 0 -- -- 36
2020-06-17 15:00:00 24.5 10 Noroeste 26 Noroeste 0 -- -- 37
2020-06-17 14:00:00 23.2 7 Sudoeste 21 Sur 0 -- -- 40
2020-06-17 13:00:00 22 10 Sudoeste 23 Sudoeste 0 -- -- 49
2020-06-17 12:00:00 21 6 Sudeste 16 Sudoeste 0 -- -- 50
2020-06-17 11:00:00 19.4 6 Este 18 Sudeste 0 -- -- 57
2020-06-17 10:00:00 16.8 9 Sudeste 14 Sudeste 0 -- -- 64
2020-06-17 09:00:00 13.9 6 Sudeste 8 Sudeste 0 -- -- 74
2020-06-17 08:00:00 12 0 Calma 5 Noroeste 0 -- -- 77
2020-06-17 07:00:00 10.6 5 Norte 10 Norte 0 -- -- 80
2020-06-17 06:00:00 10.7 4 Oeste 7 Oeste 0 -- -- 80
2020-06-17 05:00:00 10.8 3 Noroeste 5 Norte 0 -- -- 78
2020-06-17 04:00:00 12.4 2 Noroeste 9 Noroeste 0 -- -- 72
2020-06-17 03:00:00 14.6 8 Noroeste 18 Norte 0 -- -- 63
2020-06-17 02:00:00 16 11 Norte 22 Norte 0 -- -- 59
2020-06-17 01:00:00 16.9 15 Noroeste 28 Noroeste 0 -- -- 59
2020-06-17 00:00:00 17.9 15 Noroeste 27 Noroeste 0 -- -- 58
2020-06-16 23:00:00 19.1 15 Noroeste 26 Oeste 0 -- -- 56
2020-06-16 22:00:00 21 8 Oeste 26 Noroeste 0 -- -- 50
2020-06-16 21:00:00 23.6 15 Noroeste 28 Noroeste 0 -- -- 41
2020-06-16 20:00:00 24.8 13 Noroeste 31 Noroeste 0 -- -- 39
2020-06-16 19:00:00 24.1 19 Noroeste 33 Noroeste 0 -- -- 43
2020-06-16 18:00:00 25.1 17 Noroeste 29 Noroeste 0 -- -- 44
2020-06-16 17:00:00 25 12 Noroeste 23 Oeste 0 -- -- 43
2020-06-16 16:00:00 24.6 15 Oeste 24 Oeste 0 -- -- 43
2020-06-16 15:00:00 25.3 12 Noroeste 29 Oeste 0 -- -- 41
2020-06-16 14:00:00 25.1 14 Oeste 28 Oeste 0 -- -- 41
2020-06-16 13:00:00 23.6 10 Oeste 23 Noroeste 0 -- -- 44
2020-06-16 12:00:00 22.3 9 Oeste 21 Oeste 0 -- -- 46
2020-06-16 11:00:00 20.7 9 Noroeste 18 Oeste 0 -- -- 51
2020-06-16 10:00:00 19.4 3 Sudoeste 8 Nordeste 0 -- -- 56
2020-06-16 09:00:00 17.3 2 Norte 4 Norte 0 -- -- 65
2020-06-16 08:00:00 15.2 3 Oeste 6 Oeste 0 -- -- 78
2020-06-16 07:00:00 14.4 0 Calma 4 Oeste 0 -- -- 74
2020-06-16 06:00:00 14.1 2 Noroeste 5 Oeste 0 -- -- 74
2020-06-16 05:00:00 13.9 2 Noroeste 4 Oeste 0 -- -- 74
2020-06-16 04:00:00 14.9 3 Noroeste 6 Noroeste 0 -- -- 68
2020-06-16 03:00:00 16.4 5 Noroeste 11 Nordeste 0 -- -- 63
2020-06-16 02:00:00 17.9 6 Norte 17 Norte 0 -- -- 59
2020-06-16 01:00:00 18.8 6 Norte 24 Norte 0 -- -- 56
2020-06-16 00:00:00 19.3 11 Norte 24 Norte 0 -- -- 55
2020-06-15 23:00:00 19.9 14 Norte 31 Norte 0 -- -- 54
2020-06-15 22:00:00 21.2 18 Noroeste 27 Norte 0 -- -- 50
2020-06-15 21:00:00 23.1 15 Norte 32 Norte 0 -- -- 46
2020-06-15 20:00:00 24.9 14 Noroeste 30 Norte 0 -- -- 41
2020-06-15 19:00:00 26.2 15 Noroeste 27 Oeste 0 -- -- 38
2020-06-15 18:00:00 26.2 14 Noroeste 28 Oeste 0 -- -- 38
2020-06-15 17:00:00 25.9 13 Oeste 29 Noroeste 0 -- -- 40
2020-06-15 16:00:00 25.2 13 Oeste 25 Oeste 0 -- -- 40
2020-06-15 15:00:00 24.7 11 Oeste 24 Sudoeste 0 -- -- 43
2020-06-15 14:00:00 23.8 5 Sudoeste 19 Oeste 0 -- -- 45
2020-06-15 13:00:00 22.6 8 Oeste 19 Oeste 0 -- -- 48
2020-06-15 12:00:00 22.5 5 Sur 14 Noroeste 0 -- -- 49
2020-06-15 11:00:00 20.6 6 Nordeste 14 Norte 0 -- -- 55
2020-06-15 10:00:00 17.6 2 Sur 7 Sudeste 0 -- -- 65
2020-06-15 09:00:00 14.6 2 Sudeste 4 Nordeste 0 -- -- 77
2020-06-15 08:00:00 11.5 2 Norte 4 Nordeste 0 -- -- 86
2020-06-15 07:00:00 11 0 Calma 4 Oeste 0 -- -- 85
2020-06-15 06:00:00 11.6 0 Calma 4 Oeste 0 -- -- 82
2020-06-15 05:00:00 12.6 4 Noroeste 5 Oeste 0 -- -- 79
2020-06-15 04:00:00 13.3 3 Noroeste 6 Oeste 0 -- -- 76
2020-06-15 03:00:00 14.3 5 Oeste 8 Norte 0 -- -- 73
2020-06-15 02:00:00 14.5 5 Norte 8 Norte 0 -- -- 73
2020-06-15 01:00:00 16.5 0 Calma 14 Norte 0 -- -- 65
2020-06-15 00:00:00 18.5 9 Norte 24 Norte 0 -- -- 57
2020-06-14 23:00:00 19.7 16 Noroeste 25 Noroeste 0 -- -- 53
2020-06-14 22:00:00 21.2 13 Norte 23 Noroeste 0 -- -- 48
2020-06-14 21:00:00 24.3 14 Noroeste 20 Noroeste 0 -- -- 42
2020-06-14 20:00:00 24.7 10 Noroeste 23 Oeste 0 -- -- 39
2020-06-14 19:00:00 26 13 Oeste 25 Noroeste 0 -- -- 36
2020-06-14 18:00:00 25.8 10 Noroeste 25 Oeste 0 -- -- 36
2020-06-14 17:00:00 25.2 8 Oeste 23 Noroeste 0 -- -- 37
2020-06-14 16:00:00 24.2 8 Noroeste 22 Noroeste 0 -- -- 37
2020-06-14 15:00:00 23.8 8 Noroeste 18 Noroeste 0 -- -- 38
2020-06-14 14:00:00 22.6 6 Noroeste 37 Sur 0 -- -- 39
2020-06-14 13:00:00 21.9 14 Sudoeste 31 Sur 0 -- -- 44
2020-06-14 12:00:00 20.6 11 Oeste 31 Sur 0 -- -- 48
2020-06-14 11:00:00 19.9 6 Sudeste 13 Sur 0 -- -- 53
2020-06-14 10:00:00 17.6 3 Norte 8 Noroeste 0 -- -- 55
2020-06-14 09:00:00 14.2 0 Calma 5 Sudeste 0 -- -- 73
2020-06-14 08:00:00 11.8 2 Noroeste 5 Noroeste 0 -- -- 81
2020-06-14 07:00:00 10.6 3 Noroeste 7 Oeste 0 -- -- 83
2020-06-14 06:00:00 11.3 4 Noroeste 7 Noroeste 0 -- -- 80
2020-06-14 05:00:00 11.4 3 Noroeste 8 Sudeste 0 -- -- 79
2020-06-14 04:00:00 12.2 0 Calma 5 Sudeste 0 -- -- 76
2020-06-14 03:00:00 14.2 4 Sudeste 16 Noroeste 0 -- -- 67
2020-06-14 02:00:00 15.2 8 Noroeste 17 Norte 0 -- -- 62
2020-06-14 01:00:00 15.5 9 Noroeste 15 Norte 0 -- -- 61
2020-06-14 00:00:00 15.8 8 Noroeste 12 Noroeste 0 -- -- 63
2020-06-13 23:00:00 17.1 6 Noroeste 12 Noroeste 0 -- -- 60
2020-06-13 22:00:00 19 7 Noroeste 17 Oeste 0 -- -- 52
2020-06-13 21:00:00 20.7 8 Oeste 23 Oeste 0 -- -- 47
2020-06-13 20:00:00 21.5 15 Oeste 28 Oeste 0 -- -- 44
2020-06-13 19:00:00 21.9 11 Oeste 28 Oeste 0 -- -- 42
2020-06-13 18:00:00 22.2 10 Oeste 23 Oeste 0 -- -- 40
2020-06-13 17:00:00 21.8 11 Oeste 29 Oeste 0 -- -- 42
2020-06-13 16:00:00 22.2 10 Sudoeste 21 Oeste 0 -- -- 41
2020-06-13 15:00:00 21 8 Oeste 20 Noroeste 0 -- -- 44
2020-06-13 14:00:00 20.9 9 Sudoeste 25 Sudeste 0 -- -- 47
2020-06-13 13:00:00 19.3 7 Oeste 17 Sudeste 0 -- -- 53
2020-06-13 12:00:00 19.1 6 Sudeste 16 Sur 0 -- -- 57
2020-06-13 11:00:00 17.3 6 Sudeste 13 Sudeste 0 -- -- 64
2020-06-13 10:00:00 15.2 5 Este 11 Este 0 -- -- 71
2020-06-13 09:00:00 12.4 5 Sudeste 9 Sudeste 0 -- -- 82
2020-06-13 08:00:00 9.9 0 Calma 13 Noroeste 0 -- -- 89
2020-06-13 07:00:00 9.9 6 Noroeste 13 Noroeste 0 -- -- 89
2020-06-13 06:00:00 10.3 8 Noroeste 14 Noroeste 0 -- -- 87
2020-06-13 05:00:00 11.2 6 Noroeste 15 Oeste 0 -- -- 83
2020-06-13 04:00:00 12.4 10 Oeste 16 Oeste 0 -- -- 78
2020-06-13 03:00:00 11.6 6 Noroeste 11 Noroeste 0 -- -- 81
2020-06-13 02:00:00 12.5 6 Oeste 16 Oeste 0 -- -- 77
2020-06-13 01:00:00 12.6 6 Noroeste 13 Oeste 0 -- -- 77
2020-06-13 00:00:00 13.4 7 Noroeste 13 Oeste 0 -- -- 73
2020-06-12 23:00:00 14.1 6 Oeste 13 Oeste 0 -- -- 69
2020-06-12 22:00:00 16 6 Sudoeste 20 Noroeste 0 -- -- 63
2020-06-12 21:00:00 17.1 11 Noroeste 31 Oeste 0 -- -- 59
2020-06-12 20:00:00 17.8 19 Oeste 43 Oeste 0 -- -- 55
2020-06-12 19:00:00 18.8 19 Oeste 44 Oeste 0 -- -- 52
2020-06-12 18:00:00 19.7 28 Oeste 45 Oeste 0 -- -- 52
2020-06-12 17:00:00 20.3 19 Oeste 39 Oeste 0 -- -- 45
2020-06-12 16:00:00 20.4 17 Oeste 31 Oeste 0 -- -- 47
2020-06-12 15:00:00 16.5 10 Oeste 37 Oeste 0.2 -- -- 77
2020-06-12 14:00:00 17.8 14 Oeste 27 Noroeste 0 -- -- 57
2020-06-12 13:00:00 16.6 15 Oeste 27 Oeste 0 -- -- 62
2020-06-12 12:00:00 15.4 13 Oeste 23 Oeste 0 -- -- 67
2020-06-12 11:00:00 14.7 12 Sudoeste 23 Sudoeste 0 -- -- 71
2020-06-12 10:00:00 13.4 9 Oeste 20 Oeste 0 -- -- 75
2020-06-12 09:00:00 12.3 8 Oeste 18 Oeste 0 -- -- 76
2020-06-12 08:00:00 9.2 5 Sudoeste 11 Sudoeste 0 -- -- 85
2020-06-12 07:00:00 8.2 2 Noroeste 8 Noroeste 0 -- -- 84
2020-06-12 06:00:00 8.8 5 Noroeste 12 Noroeste 0 -- -- 80
2020-06-12 05:00:00 8.9 4 Oeste 11 Noroeste 0 -- -- 79
2020-06-12 04:00:00 9.2 0 Calma 9 Oeste 0 -- -- 75
2020-06-12 03:00:00 11.5 7 Oeste 18 Sudoeste 0 -- -- 64
2020-06-12 02:00:00 11.5 10 Noroeste 18 Noroeste 0 -- -- 63
2020-06-12 01:00:00 12.3 2 Sur 15 Oeste 0 -- -- 60
2020-06-12 00:00:00 13.5 8 Oeste 18 Oeste 0 -- -- 59
2020-06-11 23:00:00 15.3 13 Noroeste 23 Oeste 0 -- -- 53
2020-06-11 22:00:00 16.6 20 Oeste 35 Oeste 0 -- -- 57
2020-06-11 21:00:00 18.6 21 Oeste 40 Oeste 0 -- -- 51
2020-06-11 20:00:00 20.4 26 Oeste 45 Oeste 0 -- -- 46
2020-06-11 19:00:00 21.5 27 Oeste 54 Oeste 0 -- -- 41
2020-06-11 18:00:00 22.5 28 Oeste 51 Oeste 0 -- -- 47
2020-06-11 17:00:00 23.8 28 Oeste 57 Oeste 0 -- -- 49
2020-06-11 16:00:00 24.4 23 Oeste 46 Oeste 0 -- -- 43
2020-06-11 15:00:00 23.7 20 Oeste 42 Oeste 0 -- -- 45
2020-06-11 14:00:00 23.2 14 Sudoeste 31 Sudoeste 0 -- -- 41
2020-06-11 13:00:00 20.9 12 Noroeste 25 Oeste 0 -- -- 49
2020-06-11 12:00:00 19.9 8 Noroeste 22 Oeste 0 -- -- 52
2020-06-11 11:00:00 19.1 15 Noroeste 24 Noroeste 0 -- -- 55
2020-06-11 10:00:00 17.8 14 Noroeste 24 Noroeste 0 -- -- 51
2020-06-11 09:00:00 14.2 4 Sudeste 9 Sudeste 0 -- -- 75
2020-06-11 08:00:00 11.3 0 Calma 4 Noroeste 0 -- -- 82
2020-06-11 07:00:00 10.5 0 Calma 4 Nordeste 0 -- -- 82
2020-06-11 06:00:00 11.2 2 Oeste 7 Noroeste 0 -- -- 80
2020-06-11 05:00:00 12.5 5 Noroeste 7 Noroeste 0 -- -- 75
2020-06-11 04:00:00 13.8 0 Calma 15 Oeste 0 -- -- 69
2020-06-11 03:00:00 14.9 10 Oeste 15 Oeste 0 -- -- 66
2020-06-11 02:00:00 16.2 13 Oeste 19 Oeste 0 -- -- 61
2020-06-11 01:00:00 18 11 Oeste 17 Oeste 0 -- -- 57
2020-06-11 00:00:00 20 9 Oeste 28 Oeste 0 -- -- 56
2020-06-10 23:00:00 21.5 17 Oeste 27 Oeste 0 -- -- 51
2020-06-10 22:00:00 23.4 8 Oeste 16 Oeste 0 -- -- 27
2020-06-10 21:00:00 26.7 9 Oeste 22 Sudoeste 0 -- -- 20
2020-06-10 20:00:00 28 10 Oeste 24 Oeste 0 -- -- 21
2020-06-10 19:00:00 28.1 15 Oeste 33 Oeste 0 -- -- 23
2020-06-10 18:00:00 28.3 13 Oeste 26 Sudoeste 0 -- -- 25
2020-06-10 17:00:00 28.4 12 Sudoeste 26 Sur 0 -- -- 23
2020-06-10 16:00:00 27.8 12 Oeste 25 Oeste 0 -- -- 23
2020-06-10 15:00:00 26.8 11 Sudoeste 23 Sudoeste 0 -- -- 26
2020-06-10 14:00:00 25.8 10 Sur 23 Sur 0 -- -- 32
2020-06-10 13:00:00 24.8 13 Sudeste 28 Sudeste 0 -- -- 34
2020-06-10 12:00:00 23.4 12 Sudeste 30 Sudeste 0 -- -- 35
2020-06-10 11:00:00 22.3 16 Sudeste 32 Sudeste 0 -- -- 38
2020-06-10 10:00:00 20.2 9 Sudeste 17 Sudeste 0 -- -- 46
2020-06-10 09:00:00 18 4 Este 13 Sudeste 0 -- -- 51
2020-06-10 08:00:00 13.5 0 Calma 8 Oeste 0 -- -- 67
2020-06-10 07:00:00 12.3 4 Oeste 7 Oeste 0 -- -- 69
2020-06-10 06:00:00 12.4 2 Noroeste 6 Noroeste 0 -- -- 69
2020-06-10 05:00:00 14.8 4 Oeste 8 Oeste 0 -- -- 58
2020-06-10 04:00:00 14.8 3 Norte 12 Sudeste 0 -- -- 62
2020-06-10 03:00:00 17.3 3 Sudeste 9 Noroeste 0 -- -- 48
2020-06-10 02:00:00 18.6 7 Noroeste 15 Noroeste 0 -- -- 44
2020-06-10 01:00:00 19.5 6 Norte 18 Norte 0 -- -- 42
2020-06-10 00:00:00 20 8 Norte 15 Noroeste 0 -- -- 39
2020-06-09 23:00:00 21.5 9 Norte 14 Norte 0 -- -- 34
2020-06-09 22:00:00 22.3 9 Norte 15 Noroeste 0 -- -- 34
2020-06-09 21:00:00 25.2 11 Norte 22 Noroeste 0 -- -- 28
2020-06-09 20:00:00 25.8 8 Noroeste 22 Oeste 0 -- -- 28
2020-06-09 19:00:00 27.1 10 Noroeste 26 Noroeste 0 -- -- 27
2020-06-09 18:00:00 27.2 6 Noroeste 21 Oeste 0 -- -- 29
2020-06-09 17:00:00 26.3 9 Oeste 24 Oeste 0 -- -- 31
2020-06-09 16:00:00 26.4 12 Noroeste 38 Sur 0 -- -- 30
2020-06-09 15:00:00 25.8 7 Sudoeste 18 Oeste 0 -- -- 33
2020-06-09 14:00:00 24.6 5 Sudeste 17 Oeste 0 -- -- 36
2020-06-09 13:00:00 23.3 5 Sudeste 16 Noroeste 0 -- -- 37
2020-06-09 12:00:00 21.6 9 Sudeste 17 Sudeste 0 -- -- 42
2020-06-09 11:00:00 20.5 6 Este 18 Este 0 -- -- 43
2020-06-09 10:00:00 18.5 10 Nordeste 17 Nordeste 0 -- -- 48
2020-06-09 09:00:00 15.6 9 Nordeste 15 Nordeste 0 -- -- 56
2020-06-09 08:00:00 12.9 5 Nordeste 19 Nordeste 0 -- -- 63
2020-06-09 07:00:00 13.4 10 Norte 19 Norte 0 -- -- 60
2020-06-09 06:00:00 14 10 Norte 21 Norte 0 -- -- 58
2020-06-09 05:00:00 12.7 2 Nordeste 11 Norte 0 -- -- 60
2020-06-09 04:00:00 11.8 4 Norte 8 Sudoeste 0 -- -- 61
2020-06-09 03:00:00 13.6 2 Sudoeste 12 Norte 0 -- -- 56
2020-06-09 02:00:00 16.6 7 Norte 15 Norte 0 -- -- 43
2020-06-09 01:00:00 17.5 10 Norte 18 Norte 0 -- -- 41
2020-06-09 00:00:00 17.6 9 Norte 14 Noroeste 0 -- -- 41
2020-06-08 23:00:00 18.4 8 Norte 15 Norte 0 -- -- 40
2020-06-08 22:00:00 19.9 6 Norte 18 Nordeste 0 -- -- 39
2020-06-08 21:00:00 23.2 8 Nordeste 24 Nordeste 0 -- -- 32
2020-06-08 20:00:00 24.7 10 Norte 23 Norte 0 -- -- 30
2020-06-08 19:00:00 25.3 12 Norte 28 Norte 0 -- -- 30
2020-06-08 18:00:00 25.2 9 Norte 22 Norte 0 -- -- 32
2020-06-08 17:00:00 25 7 Nordeste 22 Nordeste 0 -- -- 33
2020-06-08 16:00:00 23.8 9 Norte 28 Nordeste 0 -- -- 36
2020-06-08 15:00:00 24.3 14 Norte 23 Norte 0 -- -- 35
2020-06-08 14:00:00 23.3 9 Norte 26 Nordeste 0 -- -- 36
2020-06-08 13:00:00 21.6 11 Nordeste 27 Nordeste 0 -- -- 39
2020-06-08 12:00:00 20.1 11 Norte 23 Norte 0 -- -- 45
2020-06-08 11:00:00 19.1 11 Nordeste 26 Norte 0 -- -- 46
2020-06-08 10:00:00 17.2 14 Nordeste 27 Nordeste 0 -- -- 50
2020-06-08 09:00:00 15.5 13 Nordeste 33 Nordeste 0 -- -- 53
2020-06-08 08:00:00 13.8 14 Nordeste 26 Nordeste 0 -- -- 59
2020-06-08 07:00:00 12.5 6 Nordeste 27 Nordeste 0 -- -- 65
2020-06-08 06:00:00 12.8 3 Norte 13 Noroeste 0 -- -- 66
2020-06-08 05:00:00 13.6 4 Norte 13 Norte 0 -- -- 69
2020-06-08 04:00:00 14.3 6 Norte 15 Noroeste 0 -- -- 61
2020-06-08 03:00:00 14.6 10 Noroeste 15 Noroeste 0 -- -- 62
2020-06-08 02:00:00 14.6 3 Nordeste 20 Noroeste 0 -- -- 66
2020-06-08 01:00:00 16.3 15 Noroeste 22 Noroeste 0 -- -- 60
2020-06-08 00:00:00 14.8 6 Noroeste 22 Oeste 0 -- -- 63
2020-06-07 23:00:00 17 16 Oeste 25 Oeste 0 -- -- 55
2020-06-07 22:00:00 19.5 15 Oeste 31 Oeste 0 -- -- 50
2020-06-07 21:00:00 21.6 16 Oeste 27 Oeste 0 -- -- 50
2020-06-07 20:00:00 22.9 12 Oeste 22 Oeste 0 -- -- 47
2020-06-07 19:00:00 24.3 13 Noroeste 26 Noroeste 0 -- -- 45
2020-06-07 18:00:00 23.4 7 Oeste 17 Oeste 0 -- -- 48
2020-06-07 17:00:00 23.7 8 Oeste 24 Noroeste 0 -- -- 47
2020-06-07 16:00:00 23.8 13 Oeste 28 Noroeste 0 -- -- 46
2020-06-07 15:00:00 22.5 10 Noroeste 26 Noroeste 0 -- -- 50
2020-06-07 14:00:00 22 14 Noroeste 27 Noroeste 0 -- -- 52
2020-06-07 13:00:00 21.8 12 Oeste 21 Noroeste 0 -- -- 51
2020-06-07 12:00:00 20.7 10 Noroeste 17 Oeste 0 -- -- 56
2020-06-07 11:00:00 19.9 8 Norte 16 Norte 0 -- -- 58
2020-06-07 10:00:00 17.7 4 Sudeste 9 Sudeste 0 -- -- 73
2020-06-07 09:00:00 14.1 0 Calma 6 Este 0 -- -- 86
2020-06-07 08:00:00 12.4 0 Calma 4 Norte 0 -- -- 91
2020-06-07 07:00:00 12.4 0 Calma 11 Noroeste 0 -- -- 88
2020-06-07 06:00:00 12.5 2 Noroeste 6 Oeste 0 -- -- 89
2020-06-07 05:00:00 12.9 2 Noroeste 4 Sudeste 0 -- -- 86
2020-06-07 04:00:00 14.3 3 Oeste 7 Noroeste 0 -- -- 81
2020-06-07 03:00:00 15.9 5 Noroeste 8 Noroeste 0 -- -- 76
2020-06-07 02:00:00 15.9 3 Norte 13 Oeste 0 -- -- 77
2020-06-07 01:00:00 16.5 8 Oeste 20 Oeste 0 -- -- 74
2020-06-07 00:00:00 17.4 13 Oeste 22 Oeste 0 -- -- 70